^^
Meteo Knjazevac Station Historical Data
Daily Summary for July 01, 2022 Units:  English    Metric   Both
Daily Weekly Monthly Yearly Custom
  High: Low: Average:
Temperature: 96.9 °F 61.5 °F 76.1 °F
Dew Point: 72.7 °F 60.1 °F 65.8 °F
Humidity: 96% 37% 75%
Wind Speed: 7mph 0mph 1.5mph
Wind Gust: 11mph - -
Wind- - SSW
Pressure: 30.05 in 29.97 in -
Precipitation: 0.00 in    
Historical Graphs
 
 
Tabular Data for July 01, 2022
Time Temperature Dew Point Pressure Wind Wind Speed Wind Gust Humidity Rainfall Rate (Hourly) solar Conditions
00:00 69.4 °F 64.7 °F 30.00 in NW 1 mph 2 mph 85% 0.00 in 0 W/m2
00:10 68.9 °F 64.5 °F 30.00 in Calm   2 mph 86% 0.00 in 0 W/m2
00:30 67.8 °F 64.1 °F 30.00 in WNW 1 mph 3 mph 88% 0.00 in 0 W/m2
00:40 67.6 °F 64 °F 30.00 in WNW 1 mph 3 mph 88% 0.00 in 0 W/m2
00:50 67.3 °F 63.6 °F 30.00 in Calm   3 mph 88% 0.00 in 0 W/m2
01:00 66.9 °F 63.2 °F 30.00 in West 2 mph 3 mph 88% 0.00 in 0 W/m2
01:10 66.6 °F 63.2 °F 30.00 in West 3 mph 7 mph 89% 0.00 in 0 W/m2
01:20 66.4 °F 63 °F 30.00 in West 2 mph 4 mph 89% 0.00 in 0 W/m2
01:30 66.2 °F 62.8 °F 30.01 in WSW 1 mph 3 mph 89% 0.00 in 0 W/m2
01:40 65.8 °F 62.5 °F 30.01 in WNW 1 mph 2 mph 89% 0.00 in 0 W/m2
01:50 65.7 °F 62.6 °F 30.01 in WNW 1 mph 2 mph 90% 0.00 in 0 W/m2
02:00 65.5 °F 62.5 °F 30.01 in Calm   4 mph 90% 0.00 in 0 W/m2
02:10 65.3 °F 62.3 °F 30.01 in WNW 1 mph 3 mph 90% 0.00 in 0 W/m2
02:20 64.9 °F 62.2 °F 30.01 in West 1 mph 3 mph 91% 0.00 in 0 W/m2
02:30 64.6 °F 61.9 °F 30.01 in West 2 mph 3 mph 91% 0.00 in 0 W/m2
02:40 64.4 °F 61.7 °F 30.01 in SW 1 mph 3 mph 91% 0.00 in 0 W/m2
02:50 64 °F 61.4 °F 30.01 in NW 1 mph 2 mph 91% 0.00 in 0 W/m2
03:00 63.9 °F 61.8 °F 30.02 in Calm   2 mph 93% 0.00 in 0 W/m2
03:10 63.9 °F 61.8 °F 30.01 in Calm   2 mph 93% 0.00 in 0 W/m2
03:30 63.3 °F 61.3 °F 30.02 in West 1 mph 2 mph 93% 0.00 in 0 W/m2
03:40 63.1 °F 61.1 °F 30.02 in WNW 1 mph 3 mph 93% 0.00 in 0 W/m2
03:50 63 °F 61.2 °F 30.02 in WNW 2 mph 3 mph 94% 0.00 in 0 W/m2
04:00 62.8 °F 60.7 °F 30.03 in West 1 mph 2 mph 93% 0.00 in 0 W/m2
04:10 62.7 °F 61 °F 30.03 in WNW 1 mph 3 mph 94% 0.00 in 0 W/m2
04:20 62.6 °F 60.8 °F 30.03 in West 3 mph 5 mph 94% 0.00 in 0 W/m2
04:30 62.2 °F 60.5 °F 30.03 in West 2 mph 5 mph 94% 0.00 in 0 W/m2
04:40 62.2 °F 60.5 °F 30.03 in WNW 1 mph 4 mph 94% 0.00 in 0 W/m2
04:50 62.1 °F 60.3 °F 30.03 in WSW 2 mph 2 mph 94% 0.00 in 0 W/m2
05:00 61.7 °F 60.3 °F 30.03 in West 2 mph 5 mph 95% 0.00 in 6 W/m2
05:10 61.7 °F 60.5 °F 30.03 in West 3 mph 5 mph 96% 0.00 in 11 W/m2
05:20 61.7 °F 60.3 °F 30.04 in West 2 mph 6 mph 95% 0.00 in 19 W/m2
05:30 61.7 °F 60.3 °F 30.04 in Calm   5 mph 95% 0.00 in 27 W/m2
05:40 61.7 °F 60.3 °F 30.04 in Calm   2 mph 95% 0.00 in 33 W/m2
05:50 61.5 °F 60.1 °F 30.04 in WSW 1 mph 3 mph 95% 0.00 in 46 W/m2
06:00 61.7 °F 60.3 °F 30.04 in West 1 mph 3 mph 95% 0.00 in 85 W/m2
06:10 61.9 °F 60.7 °F 30.04 in WNW 1 mph 4 mph 96% 0.00 in 67 W/m2
06:20 62.1 °F 60.6 °F 30.04 in West 1 mph 2 mph 95% 0.00 in 130 W/m2
06:30 62.2 °F 60.8 °F 30.04 in Calm   2 mph 95% 0.00 in 154 W/m2
06:40 62.5 °F 61.3 °F 30.04 in West 1 mph 2 mph 96% 0.00 in 179 W/m2
07:00 63.7 °F 62.5 °F 30.04 in Calm   2 mph 96% 0.00 in 241 W/m2
07:10 64.4 °F 63.2 °F 30.05 in Calm   3 mph 96% 0.00 in 273 W/m2
07:20 65 °F 63.5 °F 30.05 in NW 1 mph 3 mph 95% 0.00 in 308 W/m2
07:30 65.7 °F 63.9 °F 30.05 in Calm   2 mph 94% 0.00 in 344 W/m2
07:40 66.4 °F 64.4 °F 30.05 in SW 1 mph 2 mph 93% 0.00 in 377 W/m2
08:00 68.2 °F 65.5 °F 30.05 in Calm   2 mph 91% 0.00 in 438 W/m2
08:10 69 °F 65.9 °F 30.05 in North 1 mph 5 mph 90% 0.00 in 472 W/m2
08:20 70.6 °F 67.2 °F 30.05 in North 3 mph 5 mph 89% 0.00 in 505 W/m2
08:30 72.7 °F 66.9 °F 30.05 in North 1 mph 5 mph 82% 0.00 in 537 W/m2
08:40 74.5 °F 67.6 °F 30.05 in NE 1 mph 6 mph 79% 0.00 in 568 W/m2
08:50 76.2 °F 68.8 °F 30.05 in ENE 1 mph 3 mph 78% 0.00 in 600 W/m2
09:00 77.8 °F 69.2 °F 30.05 in NNW 1 mph 4 mph 75% 0.00 in 632 W/m2
09:10 79.2 °F 69.8 °F 30.05 in West 1 mph 3 mph 73% 0.00 in 661 W/m2
09:20 80.4 °F 70.6 °F 30.05 in WSW 1 mph 2 mph 72% 0.00 in 689 W/m2
09:30 81.7 °F 70.5 °F 30.04 in West 1 mph 3 mph 69% 0.00 in 714 W/m2
09:40 82.6 °F 70.9 °F 30.04 in NNE 2 mph 5 mph 68% 0.00 in 744 W/m2
09:50 83.5 °F 71.4 °F 30.04 in NE 1 mph 5 mph 67% 0.00 in 769 W/m2
10:00 84.2 °F 71.2 °F 30.04 in North 1 mph 5 mph 65% 0.00 in 790 W/m2
10:10 85 °F 71.4 °F 30.04 in North 1 mph 6 mph 64% 0.00 in 813 W/m2
10:20 85.6 °F 71.1 °F 30.04 in Calm   3 mph 62% 0.00 in 833 W/m2
10:30 86.4 °F 72.7 °F 30.04 in WNW 1 mph 4 mph 64% 0.00 in 854 W/m2
10:50 87.4 °F 71.3 °F 30.04 in ESE 1 mph 5 mph 59% 0.00 in 657 W/m2
11:00 88 °F 70.8 °F 30.04 in NNE 1 mph 5 mph 57% 0.00 in 913 W/m2
11:10 88.6 °F 71.9 °F 30.03 in NE 3 mph 6 mph 58% 0.00 in 926 W/m2
11:20 89.1 °F 69.7 °F 30.03 in NE 1 mph 6 mph 53% 0.00 in 146 W/m2
11:30 89.4 °F 71.1 °F 30.03 in West 1 mph 8 mph 55% 0.00 in 947 W/m2
11:40 90 °F 70.6 °F 30.03 in NE 1 mph 5 mph 53% 0.00 in 955 W/m2
11:50 90.7 °F 71.7 °F 30.03 in NNE 3 mph 6 mph 54% 0.00 in 963 W/m2
12:10 91.8 °F 71.6 °F 30.02 in NNE 3 mph 7 mph 52% 0.00 in 348 W/m2
12:20 92.1 °F 69.6 °F 30.02 in NNE 3 mph 7 mph 48% 0.00 in 248 W/m2
12:30 92.3 °F 69.8 °F 30.02 in NNE 5 mph 8 mph 48% 0.00 in 717 W/m2
12:40 92.7 °F 70.2 °F 30.01 in North 2 mph 6 mph 48% 0.00 in 279 W/m2
12:50 93.4 °F 68.9 °F 30.01 in North 3 mph 7 mph 45% 0.00 in 405 W/m2
13:10 94 °F 66.7 °F 30.01 in South 1 mph 6 mph 41% 0.00 in 965 W/m2
13:20 94.5 °F 67.8 °F 30.00 in ESE 3 mph 7 mph 42% 0.00 in 958 W/m2
13:30 94.6 °F 67.3 °F 30.00 in East 3 mph 7 mph 41% 0.00 in 951 W/m2
13:50 95.2 °F 67.8 °F 29.99 in North 1 mph 6 mph 41% 0.00 in 930 W/m2
14:00 95.3 °F 69.2 °F 29.99 in East 2 mph 6 mph 43% 0.00 in 918 W/m2
14:10 95.4 °F 69.3 °F 29.99 in NE 2 mph 11 mph 43% 0.00 in 905 W/m2
14:20 95.9 °F 69.8 °F 29.99 in North 2 mph 7 mph 43% 0.00 in 890 W/m2
14:30 96.3 °F 69.4 °F 29.98 in Calm   5 mph 42% 0.00 in 873 W/m2
14:40 96.4 °F 70.3 °F 29.98 in NE 7 mph 10 mph 43% 0.00 in 856 W/m2
14:50 96.2 °F 65.7 °F 29.98 in ESE 2 mph 7 mph 37% 0.00 in 837 W/m2
15:00 96.1 °F 67.1 °F 29.98 in South 2 mph 6 mph 39% 0.00 in 817 W/m2
15:10 96.4 °F 69.6 °F 29.98 in NNE 2 mph 6 mph 42% 0.00 in 796 W/m2
15:20 96.6 °F 70.5 °F 29.98 in ENE 3 mph 7 mph 43% 0.00 in 774 W/m2
15:30 96.8 °F 70.6 °F 29.97 in East 5 mph 6 mph 43% 0.00 in 751 W/m2
15:40 96.9 °F 72 °F 29.97 in NNE 3 mph 6 mph 45% 0.00 in 727 W/m2
16:10 96.6 °F 71.8 °F 29.97 in NW 3 mph 9 mph 45% 0.00 in 649 W/m2
Knjazevac, Serbia
Compliments of Weather Underground - 2 mb